Time;durP1;ratioP1;P1;durP2;ratioP2;P2;SDS_P1;SDS_P2;PMS_P1;PMS_P2;Temp;Humidity;BMP_temperature;BMP_pressure;BME280_temperature;BME280_humidity;BME280_pressure;Samples;Min_cycle;Max_cycle;Signal;HPM_P1;HPM_P2
2023/10/15 00:01:35;;;;;;;;;1.00;1.00;;;;;15.23;100.00;101947.97;5046236;28;45308;-74
2023/10/15 00:04:02;;;;;;;;;3.00;1.33;;;;;15.23;100.00;101954.16;5045804;28;45358;-75
2023/10/15 00:06:27;;;;;;;;;1.67;1.67;;;;;15.23;100.00;101954.16;5043875;28;45207;-76
2023/10/15 00:08:53;;;;;;;;;2.00;1.00;;;;;15.19;100.00;101957.72;5041585;28;46627;-75
2023/10/15 00:11:18;;;;;;;;;1.00;1.00;;;;;15.16;100.00;101953.22;5041007;28;67523;-75
2023/10/15 00:13:44;;;;;;;;;1.00;1.00;;;;;15.16;100.00;101949.69;5038908;28;45309;-75
2023/10/15 00:16:16;;;;;;;;;0.67;0.67;;;;;15.19;100.00;101952.38;5038377;28;45643;-74
2023/10/15 00:18:42;;;;;;;;;1.00;1.00;;;;;15.18;100.00;101950.59;5048120;28;46391;-75
2023/10/15 00:21:12;;;;;;;;;2.67;1.00;;;;;15.13;100.00;101937.25;5051882;28;45277;-76
2023/10/15 00:23:39;;;;;;;;;3.33;1.67;;;;;15.11;100.00;101952.28;5040858;28;45528;-76
2023/10/15 00:26:04;;;;;;;;;1.67;1.00;;;;;15.11;100.00;101944.31;5030448;28;45522;-75
2023/10/15 00:28:30;;;;;;;;;3.00;1.67;;;;;15.09;100.00;101940.75;5051632;28;46549;-75
2023/10/15 00:30:56;;;;;;;;;1.00;1.00;;;;;15.11;100.00;101946.06;5037414;28;70693;-75
2023/10/15 00:33:21;;;;;;;;;1.00;1.00;;;;;15.08;100.00;101944.28;5049725;28;52086;-75
2023/10/15 00:35:49;;;;;;;;;2.00;2.00;;;;;15.11;100.00;101946.97;5041873;28;50748;-76
2023/10/15 00:38:19;;;;;;;;;3.33;1.00;;;;;15.06;100.00;101956.66;5043930;28;45737;-76
2023/10/15 00:40:45;;;;;;;;;1.00;1.00;;;;;15.03;100.00;101958.44;5047133;28;45516;-75
2023/10/15 00:43:13;;;;;;;;;3.00;2.00;;;;;15.00;100.00;101955.72;5043605;28;45429;-75
2023/10/15 00:45:45;;;;;;;;;2.33;1.67;;;;;15.01;100.00;101954.84;5040831;28;45585;-74
2023/10/15 00:48:13;;;;;;;;;2.00;2.00;;;;;14.99;100.00;101962.81;5045015;28;46567;-75
2023/10/15 00:50:43;;;;;;;;;4.00;2.00;;;;;14.98;100.00;101958.38;5030882;28;45804;-75
2023/10/15 00:53:23;;;;;;;;;2.00;2.00;;;;;14.95;100.00;101950.34;5053239;28;45276;-76
2023/10/15 00:55:53;;;;;;;;;4.67;2.00;;;;;14.94;100.00;101953.88;5050233;28;45447;-75
2023/10/15 01:01:51;;;;;;;;;2.67;2.67;;;;;14.88;100.00;101953.81;5029116;28;45522;-75
2023/10/15 01:04:00;;;;;;;;;3.33;2.00;;;;;14.81;100.00;101952.88;5045804;28;45341;-75
2023/10/15 01:06:30;;;;;;;;;3.67;2.00;;;;;14.79;100.00;101954.59;5047114;28;45465;-75
2023/10/15 01:09:09;;;;;;;;;1.00;1.00;;;;;14.79;100.00;101956.38;5044801;28;47421;-76
2023/10/15 01:11:43;;;;;;;;;1.33;1.33;;;;;14.79;100.00;101965.22;5042256;28;45346;-75
2023/10/15 01:14:10;;;;;;;;;3.00;1.33;;;;;14.81;100.00;101967.94;5042499;28;45427;-75
2023/10/15 01:16:37;;;;;;;;;1.33;1.33;;;;;14.82;100.00;101956.41;5039793;28;46260;-75
2023/10/15 01:19:15;;;;;;;;;4.00;2.00;;;;;14.84;100.00;101957.31;5021295;28;46681;-75
2023/10/15 01:21:50;;;;;;;;;1.00;1.00;;;;;14.86;100.00;101960.88;5052579;28;46490;-76
2023/10/15 01:24:22;;;;;;;;;4.00;2.00;;;;;14.84;100.00;101950.22;5040407;28;45511;-75
2023/10/15 01:27:04;;;;;;;;;1.33;1.33;;;;;14.82;100.00;101949.31;5047324;28;45519;-75
2023/10/15 01:29:33;;;;;;;;;4.67;1.33;;;;;14.80;100.00;101950.16;5045688;28;46787;-76
2023/10/15 01:32:03;;;;;;;;;1.67;1.67;;;;;14.77;100.00;101944.84;5045080;28;45307;-75
2023/10/15 01:34:31;;;;;;;;;2.00;2.00;;;;;14.76;100.00;101943.94;5040666;28;45283;-76
2023/10/15 01:36:59;;;;;;;;;1.33;1.33;;;;;14.74;100.00;101944.78;5045788;28;45557;-75
2023/10/15 01:39:40;;;;;;;;;2.33;1.33;;;;;14.73;100.00;101945.66;5041861;28;46480;-75
2023/10/15 01:42:06;;;;;;;;;2.00;0.33;;;;;14.72;100.00;101935.91;5048370;28;45402;-75
2023/10/15 01:44:47;;;;;;;;;3.33;1.67;;;;;14.73;100.00;101946.56;5039988;28;45300;-76
2023/10/15 01:47:12;;;;;;;;;1.00;1.00;;;;;14.70;100.00;101937.63;5052719;28;45559;-75
2023/10/15 01:49:38;;;;;;;;;1.00;1.00;;;;;14.71;100.00;101939.44;5040268;28;68404;-75
2023/10/15 01:52:10;;;;;;;;;2.00;1.00;;;;;14.71;100.00;101950.97;5026393;28;45503;-75
2023/10/15 01:54:37;;;;;;;;;2.00;2.00;;;;;14.67;100.00;101958.00;5042040;28;45232;-75
2023/10/15 01:57:06;;;;;;;;;1.67;1.67;;;;;14.66;100.00;101952.69;5041751;28;45511;-75
2023/10/15 01:59:44;;;;;;;;;3.67;2.00;;;;;14.65;100.00;101956.22;5041359;28;45856;-76
2023/10/15 02:02:13;;;;;;;;;2.00;2.00;;;;;14.63;100.00;101961.50;5042906;28;45560;-76
2023/10/15 02:04:44;;;;;;;;;1.00;1.00;;;;;14.62;100.00;101954.41;5046695;28;45470;-77
2023/10/15 02:07:13;;;;;;;;;1.67;1.67;;;;;14.66;100.00;101972.19;5047049;28;45529;-77
2023/10/15 02:09:42;;;;;;;;;2.67;2.67;;;;;14.68;100.00;101967.75;5048754;28;47580;-76
2023/10/15 02:12:09;;;;;;;;;6.33;2.00;;;;;14.70;100.00;101962.50;5040215;28;45275;-76
2023/10/15 02:14:34;;;;;;;;;2.00;2.00;;;;;14.66;100.00;101968.63;5041438;28;45331;-75
2023/10/15 02:17:05;;;;;;;;;0.67;0.00;;;;;14.64;100.00;101960.63;5038921;28;45696;-74
2023/10/15 02:21:58;;;;;;;;;2.67;1.00;;;;;14.61;100.00;101962.38;5040209;28;45550;-75
2023/10/15 02:24:24;;;;;;;;;2.00;2.00;;;;;14.58;100.00;101968.50;5052875;28;63172;-75
2023/10/15 02:26:49;;;;;;;;;2.67;2.00;;;;;14.57;100.00;101965.84;5040090;28;62037;-76
2023/10/15 02:32:08;;;;;;;;;4.00;1.00;;;;;14.51;100.00;101968.44;5040629;28;45470;-76
2023/10/15 02:34:40;;;;;;;;;2.00;1.00;;;;;14.49;100.00;101967.50;5044969;28;45570;-74
2023/10/15 02:37:16;;;;;;;;;2.00;2.00;;;;;14.48;100.00;101960.41;5049080;28;45287;-76
2023/10/15 02:39:49;;;;;;;;;1.00;1.00;;;;;14.43;100.00;101970.94;5053061;28;47284;-75
2023/10/15 02:42:16;;;;;;;;;1.67;1.67;;;;;14.39;100.00;101975.34;5042817;28;47398;-75
2023/10/15 02:44:41;;;;;;;;;4.67;2.33;;;;;14.38;100.00;101969.97;5030742;28;45548;-74
2023/10/15 02:47:07;;;;;;;;;2.00;2.00;;;;;14.35;100.00;101972.63;5035647;28;45409;-76
2023/10/15 02:52:23;;;;;;;;;1.00;1.00;;;;;14.35;100.00;101976.16;5048416;28;45582;-75
2023/10/15 02:54:49;;;;;;;;;2.00;2.00;;;;;14.36;100.00;101969.06;5033915;28;45573;-75
2023/10/15 02:57:17;;;;;;;;;1.67;1.67;;;;;14.33;100.00;101979.69;5048013;28;45449;-75
2023/10/15 02:59:52;;;;;;;;;1.00;1.00;;;;;14.30;100.00;101984.94;5039225;28;46784;-76
2023/10/15 03:02:19;;;;;;;;;2.00;2.00;;;;;14.28;100.00;101995.56;5037617;28;45315;-76
2023/10/15 03:04:49;;;;;;;;;1.00;1.00;;;;;14.23;100.00;101991.94;5037073;28;45223;-75
2023/10/15 03:07:18;;;;;;;;;2.00;2.00;;;;;14.24;100.00;101991.06;5037654;28;45387;-75
2023/10/15 03:09:48;;;;;;;;;3.33;1.67;;;;;14.24;100.00;101991.06;5036612;28;46497;-75
2023/10/15 03:12:15;;;;;;;;;4.33;2.00;;;;;14.23;100.00;101988.38;5037884;28;46831;-76
2023/10/15 03:14:44;;;;;;;;;3.33;1.00;;;;;14.19;100.00;101991.88;5041073;28;45486;-75
2023/10/15 03:17:24;;;;;;;;;2.67;1.00;;;;;14.19;100.00;101990.09;5039297;28;45542;-77
2023/10/15 03:19:49;;;;;;;;;2.00;2.00;;;;;14.19;100.00;101990.09;5035705;28;48061;-77
2023/10/15 03:22:15;;;;;;;;;1.33;1.33;;;;;14.16;100.00;101990.94;5050342;28;45283;-75
2023/10/15 03:24:44;;;;;;;;;3.67;1.33;;;;;14.19;100.00;101990.09;5036930;28;45466;-76
2023/10/15 03:27:11;;;;;;;;;1.00;1.00;;;;;14.13;100.00;101990.91;5036923;28;45549;-76
2023/10/15 03:29:36;;;;;;;;;1.67;1.67;;;;;14.11;100.00;101992.66;5036240;28;45862;-75
2023/10/15 03:32:09;;;;;;;;;2.00;1.00;;;;;14.15;100.00;101996.22;5035768;28;69363;-77
2023/10/15 03:34:42;;;;;;;;;2.00;1.67;;;;;14.17;100.00;101989.19;5036659;28;45354;-74
2023/10/15 03:37:13;;;;;;;;;3.67;2.00;;;;;14.13;100.00;101995.31;5038742;28;45369;-76
2023/10/15 03:42:09;;;;;;;;;1.67;1.00;;;;;14.11;100.00;101997.97;5036593;28;45504;-75
2023/10/15 03:44:45;;;;;;;;;1.33;1.00;;;;;14.08;100.00;101995.25;5033991;28;45493;-74
2023/10/15 03:47:15;;;;;;;;;1.33;1.33;;;;;14.08;100.00;102000.56;5036710;28;45577;-75
2023/10/15 03:49:43;;;;;;;;;1.00;1.00;;;;;14.05;100.00;101995.19;5032687;28;46134;-76
2023/10/15 03:52:14;;;;;;;;;1.67;1.67;;;;;14.06;100.00;101999.66;5022653;28;45322;-75
2023/10/15 03:54:39;;;;;;;;;2.00;2.00;;;;;14.04;100.00;101998.72;5036030;28;45497;-77
2023/10/15 03:57:08;;;;;;;;;7.33;2.00;;;;;13.98;100.00;101997.75;5036771;28;45241;-75
2023/10/15 03:59:44;;;;;;;;;2.67;1.00;;;;;13.97;100.00;102002.16;5025440;28;46320;-75
2023/10/15 04:02:22;;;;;;;;;1.00;1.00;;;;;13.97;100.00;102009.25;5032708;28;45509;-75
2023/10/15 04:05:00;;;;;;;;;3.33;2.00;;;;;13.95;100.00;102017.16;5035104;28;45521;-75
2023/10/15 04:07:26;;;;;;;;;2.00;2.00;;;;;13.94;100.00;102015.38;5030952;28;45307;-75
2023/10/15 04:09:51;;;;;;;;;1.33;1.00;;;;;13.89;100.00;102019.72;5036169;28;46366;-76
2023/10/15 04:12:18;;;;;;;;;1.00;1.00;;;;;13.88;100.00;102017.94;5035470;28;67094;-75
2023/10/15 04:14:44;;;;;;;;;1.33;1.33;;;;;13.85;100.00;102021.44;5036666;28;45236;-76
2023/10/15 04:17:11;;;;;;;;;4.00;2.00;;;;;13.88;100.00;102018.81;5043166;28;45300;-75
2023/10/15 04:19:36;;;;;;;;;4.00;3.00;;;;;13.89;100.00;102020.59;5035824;28;46343;-75
2023/10/15 04:22:13;;;;;;;;;1.00;1.00;;;;;13.93;100.00;102033.94;5037701;28;45485;-75
2023/10/15 04:24:46;;;;;;;;;4.00;2.00;;;;;13.96;100.00;102039.31;5033597;28;45557;-75
2023/10/15 04:27:16;;;;;;;;;2.00;2.00;;;;;13.96;100.00;102031.34;5040285;28;45382;-75
2023/10/15 04:29:49;;;;;;;;;3.00;2.00;;;;;13.94;100.00;102049.00;5039069;28;47558;-75
2023/10/15 04:32:18;;;;;;;;;3.00;3.00;;;;;13.94;100.00;102055.22;5030018;28;45277;-75
2023/10/15 04:34:44;;;;;;;;;3.00;2.67;;;;;13.92;100.00;102051.66;5039754;28;45193;-76
2023/10/15 04:37:16;;;;;;;;;3.33;2.00;;;;;13.88;100.00;102045.38;5040425;28;45418;-75
2023/10/15 04:40:04;;;;;;;;;2.00;2.00;;;;;13.93;100.00;102052.53;5039248;28;46669;-75
2023/10/15 04:42:33;;;;;;;;;3.00;1.00;;;;;13.93;100.00;102066.69;5038808;28;45436;-75
2023/10/15 04:44:59;;;;;;;;;2.00;2.00;;;;;13.97;100.00;102059.69;5049893;28;45403;-75
2023/10/15 04:47:28;;;;;;;;;2.67;2.00;;;;;14.04;100.00;102062.47;5039277;28;45303;-74
2023/10/15 04:49:57;;;;;;;;;2.00;2.00;;;;;14.05;100.00;102064.25;5039234;28;46499;-76
2023/10/15 04:52:23;;;;;;;;;4.00;2.00;;;;;14.07;100.00;102062.53;5043862;28;45331;-78
2023/10/15 04:54:49;;;;;;;;;3.00;3.00;;;;;14.09;100.00;102071.41;5039012;28;45391;-75
2023/10/15 04:57:14;;;;;;;;;2.00;2.00;;;;;14.09;100.00;102062.53;5039344;28;46626;-76
2023/10/15 04:59:41;;;;;;;;;2.00;2.00;;;;;14.12;100.00;102062.59;5038456;28;54367;-75
2023/10/15 05:02:08;;;;;;;;;2.00;2.00;;;;;14.10;100.00;102059.00;5040323;28;45446;-75
2023/10/15 05:04:33;;;;;;;;;4.00;2.00;;;;;14.15;100.00;102058.22;5042306;28;45561;-75
2023/10/15 05:06:58;;;;;;;;;4.00;2.00;;;;;14.19;100.00;102056.50;5039858;28;45296;-75
2023/10/15 05:09:24;;;;;;;;;2.00;2.00;;;;;14.19;100.00;102058.28;5038094;28;63144;-75
2023/10/15 05:11:53;;;;;;;;;2.00;2.00;;;;;14.13;100.00;102059.06;5038937;28;59903;-77
2023/10/15 05:14:19;;;;;;;;;3.00;3.00;;;;;14.13;100.00;102048.44;5040560;28;45340;-76
2023/10/15 05:16:46;;;;;;;;;2.00;2.00;;;;;14.10;100.00;102051.03;5052400;28;45386;-75
2023/10/15 05:19:17;;;;;;;;;2.00;2.00;;;;;14.10;100.00;102057.25;5038527;28;46768;-75
2023/10/15 05:21:44;;;;;;;;;8.67;3.00;;;;;14.11;100.00;102053.75;5055171;28;45719;-75
2023/10/15 05:24:09;;;;;;;;;2.00;2.00;;;;;14.06;100.00;102051.84;5041236;28;45509;-77
2023/10/15 05:26:34;;;;;;;;;4.33;3.00;;;;;14.06;100.00;102044.81;5039245;28;49557;-75
2023/10/15 05:29:00;;;;;;;;;4.33;3.00;;;;;14.04;100.00;102041.22;5037085;28;68145;-75
2023/10/15 05:31:26;;;;;;;;;3.00;2.00;;;;;14.07;100.00;102058.97;5038242;28;45465;-75
2023/10/15 05:33:52;;;;;;;;;3.67;2.00;;;;;13.99;100.00;102057.94;5037044;28;45336;-75
2023/10/15 05:36:17;;;;;;;;;1.33;1.33;;;;;14.01;100.00;102066.81;5038320;28;52072;-76
2023/10/15 05:38:43;;;;;;;;;3.00;3.00;;;;;14.00;100.00;102065.91;5022879;28;45595;-77
2023/10/15 05:41:09;;;;;;;;;2.33;2.00;;;;;13.96;100.00;102072.06;5038492;28;45298;-76
2023/10/15 05:43:34;;;;;;;;;2.00;2.00;;;;;13.87;100.00;102078.09;5038226;28;45385;-75
2023/10/15 05:46:00;;;;;;;;;1.00;1.00;;;;;13.87;100.00;102080.78;5045966;28;45387;-76
2023/10/15 05:48:25;;;;;;;;;2.33;2.33;;;;;13.79;100.00;102079.72;5037460;28;67182;-75
2023/10/15 05:50:51;;;;;;;;;3.00;3.00;;;;;13.70;100.00;102076.03;5038473;28;65848;-76
2023/10/15 05:53:16;;;;;;;;;5.67;2.67;;;;;13.71;100.00;102078.72;5038193;28;45341;-76
2023/10/15 05:55:42;;;;;;;;;4.00;2.00;;;;;13.72;100.00;102082.25;5042473;28;45485;-76
2023/10/15 05:58:08;;;;;;;;;4.00;2.00;;;;;13.68;100.00;102075.97;5037913;28;47563;-76
2023/10/15 06:00:39;;;;;;;;;3.00;3.00;;;;;13.62;100.00;102068.81;5037997;28;45308;-75
2023/10/15 06:03:06;;;;;;;;;4.00;2.67;;;;;13.62;100.00;102082.06;5041051;28;45522;-75
2023/10/15 06:05:31;;;;;;;;;2.33;2.33;;;;;13.57;100.00;102080.22;5038068;28;45467;-76
2023/10/15 06:07:56;;;;;;;;;2.00;2.00;;;;;13.56;100.00;102078.44;5037271;28;68309;-75
2023/10/15 06:10:22;;;;;;;;;2.00;2.00;;;;;13.53;100.00;102087.25;5037839;28;45458;-75
2023/10/15 06:12:47;;;;;;;;;4.00;3.00;;;;;13.52;100.00;102084.53;5038121;28;45460;-75
2023/10/15 06:15:15;;;;;;;;;2.67;2.67;;;;;13.52;100.00;102073.91;5048834;28;60750;-75
2023/10/15 06:17:40;;;;;;;;;3.67;3.00;;;;;13.51;100.00;102090.72;5039644;28;47407;-75
2023/10/15 06:20:12;;;;;;;;;3.67;3.33;;;;;13.51;100.00;102085.41;5051152;28;45426;-75
2023/10/15 06:22:45;;;;;;;;;3.33;2.33;;;;;13.56;100.00;102100.53;5035200;28;45414;-74
2023/10/15 06:25:12;;;;;;;;;3.00;3.00;;;;;13.56;100.00;102104.97;5046340;28;45571;-76
2023/10/15 06:27:38;;;;;;;;;3.67;2.33;;;;;13.55;100.00;102105.84;5037381;28;47350;-76
2023/10/15 06:30:05;;;;;;;;;3.00;3.00;;;;;13.58;100.00;102092.59;5037866;28;45508;-75
2023/10/15 06:32:31;;;;;;;;;3.00;3.00;;;;;13.55;100.00;102098.75;5037163;28;45374;-75
2023/10/15 06:34:57;;;;;;;;;2.00;2.00;;;;;13.55;100.00;102103.19;5032520;28;47190;-75
2023/10/15 06:37:22;;;;;;;;;2.00;2.00;;;;;13.54;100.00;102109.34;5035565;28;46410;-75
2023/10/15 06:39:47;;;;;;;;;4.67;2.33;;;;;13.53;100.00;102110.19;5037682;28;67728;-74
2023/10/15 06:42:12;;;;;;;;;5.00;3.67;;;;;13.56;100.00;102110.28;5036713;28;64211;-75
2023/10/15 06:44:38;;;;;;;;;3.00;3.00;;;;;13.53;100.00;102113.78;5050065;28;61288;-76
2023/10/15 06:47:03;;;;;;;;;4.00;3.00;;;;;13.53;100.00;102124.38;5040400;28;71031;-75
2023/10/15 06:49:28;;;;;;;;;4.33;4.33;;;;;13.52;100.00;102129.63;5040775;28;45328;-75
2023/10/15 06:51:54;;;;;;;;;3.33;3.33;;;;;13.50;100.00;102126.06;5046725;28;55884;-75
2023/10/15 06:54:19;;;;;;;;;7.00;5.00;;;;;13.52;100.00;102119.03;5038749;28;45322;-76
2023/10/15 06:56:44;;;;;;;;;5.00;3.00;;;;;13.55;100.00;102125.31;5034184;28;70621;-76
2023/10/15 06:59:11;;;;;;;;;2.67;2.67;;;;;13.59;100.00;102135.13;5033207;28;58992;-76
2023/10/15 07:01:36;;;;;;;;;4.67;3.33;;;;;13.57;100.00;102141.25;5037239;28;45407;-76
2023/10/15 07:04:02;;;;;;;;;3.00;3.00;;;;;13.57;100.00;102136.81;5037761;28;45446;-75
2023/10/15 07:06:27;;;;;;;;;4.33;4.00;;;;;13.61;100.00;102144.00;5036726;28;48122;-75
2023/10/15 07:08:52;;;;;;;;;5.00;4.00;;;;;13.63;100.00;102147.59;5038516;28;68688;-75
2023/10/15 07:11:18;;;;;;;;;4.00;3.67;;;;;13.67;100.00;102145.88;5043213;28;64847;-77
2023/10/15 07:13:43;;;;;;;;;6.67;4.67;;;;;13.72;100.00;102143.31;5034915;28;65785;-74
2023/10/15 07:16:08;;;;;;;;;5.33;4.00;;;;;13.72;100.00;102149.50;5043963;28;46733;-75
2023/10/15 07:18:34;;;;;;;;;5.00;5.00;;;;;13.75;100.00;102144.28;5038764;28;68789;-74
2023/10/15 07:20:59;;;;;;;;;4.00;4.00;;;;;13.75;100.00;102151.34;5041396;28;45260;-76
2023/10/15 07:23:25;;;;;;;;;6.00;4.33;;;;;13.80;100.00;102153.22;5036566;28;45649;-77
2023/10/15 07:25:51;;;;;;;;;4.00;4.00;;;;;13.80;100.00;102147.91;5040433;28;47768;-75
2023/10/15 07:28:17;;;;;;;;;4.33;4.33;;;;;13.82;100.00;102151.47;5034473;28;65655;-75
2023/10/15 07:30:42;;;;;;;;;3.67;3.33;;;;;13.81;100.00;102155.00;5035032;28;45379;-76
2023/10/15 07:33:08;;;;;;;;;5.00;5.00;;;;;13.81;100.00;102157.66;5032430;28;45537;-75
2023/10/15 07:35:35;;;;;;;;;3.33;3.33;;;;;13.84;100.00;102165.66;5036284;28;46365;-74
2023/10/15 07:38:02;;;;;;;;;5.67;4.00;;;;;13.86;100.00;102160.41;5036078;28;45472;-74
2023/10/15 07:40:27;;;;;;;;;4.75;4.00;;;;;13.88;100.00;102156.91;5036314;28;45465;-75
2023/10/15 07:42:58;;;;;;;;;4.00;4.00;;;;;13.92;100.00;102176.44;5039743;28;45457;-75
2023/10/15 07:45:28;;;;;;;;;3.33;3.33;;;;;13.93;100.00;102170.25;5028336;28;46397;-75
2023/10/15 07:47:59;;;;;;;;;6.33;5.00;;;;;13.94;100.00;102176.47;5035641;28;45494;-75
2023/10/15 07:50:25;;;;;;;;;6.00;4.67;;;;;13.95;100.00;102176.47;5036856;28;45463;-74
2023/10/15 07:52:51;;;;;;;;;5.00;5.00;;;;;13.99;100.00;102175.69;5036308;28;45388;-75
2023/10/15 07:55:17;;;;;;;;;5.00;3.67;;;;;14.00;100.00;102179.22;5035789;28;46422;-75
2023/10/15 07:57:43;;;;;;;;;5.00;4.00;;;;;14.04;100.00;102183.72;5030981;28;45513;-75
2023/10/15 08:00:15;;;;;;;;;6.67;6.67;;;;;14.04;100.00;102189.03;5035641;28;45389;-75
2023/10/15 08:02:48;;;;;;;;;8.00;4.00;;;;;14.07;100.00;102189.13;5036262;28;45535;-75
2023/10/15 08:05:15;;;;;;;;;8.00;6.00;;;;;14.10;100.00;102179.41;5035437;28;47491;-76
2023/10/15 08:07:41;;;;;;;;;7.33;6.00;;;;;14.11;100.00;102182.97;5033709;28;45442;-71
2023/10/15 08:10:08;;;;;;;;;8.00;7.00;;;;;14.08;100.00;102191.78;5032066;28;45616;-67
2023/10/15 08:12:34;;;;;;;;;7.67;5.33;;;;;14.07;100.00;102192.66;5033302;28;45696;-68
2023/10/15 08:15:00;;;;;;;;;5.00;5.00;;;;;14.02;100.00;102188.13;5035063;28;45683;-69
2023/10/15 08:17:26;;;;;;;;;5.00;5.00;;;;;13.98;100.00;102189.84;5034408;28;45311;-70
2023/10/15 08:19:53;;;;;;;;;6.00;6.00;;;;;13.98;100.00;102202.22;5036961;22;45627;-69
2023/10/15 08:22:18;;;;;;;;;6.00;4.00;;;;;13.98;100.00;102199.56;5072492;27;46236;-70
2023/10/15 08:24:43;;;;;;;;;5.33;4.00;;;;;13.97;100.00;102198.66;5064909;27;70126;-73
2023/10/15 08:27:09;;;;;;;;;8.00;5.00;;;;;13.96;100.00;102201.31;5077740;27;45457;-73
2023/10/15 08:29:35;;;;;;;;;4.67;4.67;;;;;13.95;100.00;102203.03;5090350;27;45440;-73
2023/10/15 08:32:01;;;;;;;;;3.00;3.00;;;;;13.94;100.00;102203.00;5077280;27;64060;-73
2023/10/15 08:34:27;;;;;;;;;4.00;4.00;;;;;13.93;100.00;102206.53;5078192;27;46664;-74
2023/10/15 08:36:53;;;;;;;;;9.00;5.00;;;;;13.96;100.00;102204.84;5074219;27;46004;-73
2023/10/15 08:39:18;;;;;;;;;6.67;5.33;;;;;13.96;100.00;102207.50;5074668;27;45436;-73
2023/10/15 08:41:45;;;;;;;;;2.67;2.33;;;;;13.94;100.00;102206.56;5078392;27;59341;-73
2023/10/15 08:44:12;;;;;;;;;3.00;3.00;;;;;13.97;100.00;102211.06;5081722;27;46330;-73
2023/10/15 08:46:39;;;;;;;;;3.33;3.00;;;;;13.93;100.00;102215.41;5078510;27;45440;-72
2023/10/15 08:49:08;;;;;;;;;5.33;4.33;;;;;13.94;100.00;102206.56;5054534;28;63519;-72
2023/10/15 08:51:34;;;;;;;;;2.67;2.67;;;;;13.98;100.00;102216.38;5062026;27;45393;-72
2023/10/15 08:54:02;;;;;;;;;2.00;2.00;;;;;13.97;100.00;102208.41;5066691;27;47499;-71
2023/10/15 08:56:29;;;;;;;;;2.00;2.00;;;;;13.99;100.00;102215.50;5065276;27;46101;-72
2023/10/15 08:58:56;;;;;;;;;1.00;1.00;;;;;14.00;100.00;102204.03;5060592;27;45702;-72
2023/10/15 09:01:23;;;;;;;;;0.00;0.00;;;;;14.07;100.00;102211.25;5066363;27;45509;-72
2023/10/15 09:03:49;;;;;;;;;1.00;1.00;;;;;14.10;100.00;102205.97;5066535;27;47487;-71
2023/10/15 09:06:15;;;;;;;;;2.00;1.00;;;;;14.11;100.00;102213.13;5063787;28;45871;-72
2023/10/15 09:08:43;;;;;;;;;0.00;0.00;;;;;14.16;100.00;102213.16;5069633;27;45339;-73
2023/10/15 09:11:10;;;;;;;;;0.33;0.33;;;;;14.18;100.00;102216.78;5071125;27;45541;-72
2023/10/15 09:13:36;;;;;;;;;1.00;1.00;;;;;14.24;100.00;102216.88;5063484;28;45753;-72
2023/10/15 09:16:04;;;;;;;;;2.33;1.00;;;;;14.27;100.00;102213.38;5066637;27;46803;-72
2023/10/15 09:18:31;;;;;;;;;1.67;1.00;;;;;14.30;100.00;102219.63;5058516;28;45451;-73
2023/10/15 09:20:58;;;;;;;;;2.33;2.00;;;;;14.32;100.00;102214.34;5060777;28;45523;-74
2023/10/15 09:23:23;;;;;;;;;1.00;1.00;;;;;14.35;100.00;102217.97;5063974;28;46582;-72
2023/10/15 09:25:53;;;;;;;;;0.00;0.00;;;;;14.40;100.00;102218.03;5062723;27;72140;-73
2023/10/15 09:28:19;;;;;;;;;2.00;0.00;;;;;14.45;100.00;102210.16;5065813;28;45523;-72
2023/10/15 09:30:46;;;;;;;;;0.00;0.00;;;;;14.51;100.00;102212.94;5061198;28;45391;-73
2023/10/15 09:33:16;;;;;;;;;0.00;0.00;;;;;14.58;100.00;102215.72;5062158;28;47434;-72
2023/10/15 09:35:42;;;;;;;;;0.00;0.00;;;;;14.68;100.00;102217.66;5063668;28;45356;-73
2023/10/15 09:38:14;;;;;;;;;0.67;0.67;;;;;14.82;100.00;102214.34;5065739;28;45587;-72
2023/10/15 09:40:43;;;;;;;;;1.33;0.00;;;;;14.91;100.00;102220.72;5063962;28;45547;-73
2023/10/15 09:43:10;;;;;;;;;1.00;0.00;;;;;14.97;100.00;102214.59;5060850;28;47402;-72
2023/10/15 09:45:35;;;;;;;;;0.00;0.00;;;;;15.04;100.00;102218.22;5065259;27;45533;-74
2023/10/15 09:48:02;;;;;;;;;0.67;0.00;;;;;15.05;100.00;102209.38;5064394;27;45453;-73
2023/10/15 09:50:31;;;;;;;;;0.33;0.33;;;;;15.07;100.00;102216.47;5282887;22;47036;-72
2023/10/15 09:53:01;;;;;;;;;0.00;0.00;;;;;15.06;100.00;102209.38;5057587;27;45661;-73
2023/10/15 09:55:28;;;;;;;;;0.00;0.00;;;;;15.08;100.00;102207.66;5064492;28;45506;-74
2023/10/15 09:57:56;;;;;;;;;2.33;0.00;;;;;15.08;100.00;102207.66;5070078;28;45320;-75
2023/10/15 10:03:29;;;;;;;;;0.00;0.00;;;;;15.10;100.00;102211.22;5071947;27;45970;-74
2023/10/15 10:06:09;;;;;;;;;0.00;0.00;;;;;15.11;100.00;102206.78;5071248;27;47184;-73
2023/10/15 10:09:06;;;;;;;;;1.00;0.00;;;;;15.16;100.00;102211.31;5066450;27;45679;-74
2023/10/15 10:11:54;;;;;;;;;1.00;1.00;;;;;15.29;100.00;102209.72;5078571;27;45611;-75
2023/10/15 10:14:41;;;;;;;;;2.00;0.00;;;;;15.44;100.00;102209.00;5075539;27;46870;-75
2023/10/15 10:17:07;;;;;;;;;1.33;1.33;;;;;15.57;100.00;102205.66;5053047;27;47115;-74
2023/10/15 10:19:33;;;;;;;;;0.00;0.00;;;;;15.68;100.00;102204.03;5075841;27;45249;-74
2023/10/15 10:21:58;;;;;;;;;1.00;0.00;;;;;15.81;100.00;102213.03;5075473;27;48873;-75
2023/10/15 10:24:24;;;;;;;;;1.33;0.00;;;;;15.90;100.00;102221.16;5072404;27;47234;-74
2023/10/15 10:26:54;;;;;;;;;1.00;1.00;;;;;15.89;100.00;102221.16;5079396;27;63937;-74
2023/10/15 10:29:19;;;;;;;;;1.00;0.00;;;;;15.84;100.00;102218.44;5077185;27;45462;-75
2023/10/15 10:31:47;;;;;;;;;0.00;0.00;;;;;15.75;100.00;102204.09;5076382;27;45605;-75
2023/10/15 10:34:14;;;;;;;;;1.33;0.00;;;;;15.69;100.00;102207.59;5074673;27;46664;-75
2023/10/15 10:36:41;;;;;;;;;1.00;1.00;;;;;15.68;100.00;102208.47;5075423;28;45487;-74
2023/10/15 10:39:15;;;;;;;;;1.00;1.00;;;;;15.70;100.00;102217.34;5075953;27;45558;-75
2023/10/15 10:41:49;;;;;;;;;0.00;0.00;;;;;15.76;100.00;102213.88;5073176;28;45463;-73
2023/10/15 10:44:38;;;;;;;;;0.00;0.00;;;;;15.80;100.00;102219.25;5063189;27;46406;-75
2023/10/15 10:47:21;;;;;;;;;0.00;0.00;;;;;15.88;100.00;102212.25;5044789;27;45315;-75
2023/10/15 10:50:03;;;;;;;;;0.00;0.00;;;;;15.96;100.00;102209.66;5065416;27;45402;-75
2023/10/15 10:52:36;;;;;;;;;2.00;0.00;;;;;16.08;100.00;102215.13;5075629;27;45556;-74
2023/10/15 10:55:33;;;;;;;;;0.00;0.00;;;;;16.27;100.00;102210.88;5089527;22;46777;-77
2023/10/15 10:58:02;;;;;;;;;0.67;0.00;;;;;16.35;100.00;102201.19;5105351;27;45568;-76
2023/10/15 11:00:30;;;;;;;;;3.67;0.00;;;;;16.45;100.00;102205.72;5112030;27;45781;-75
2023/10/15 11:02:58;;;;;;;;;3.00;1.00;;;;;16.52;100.00;102200.44;5111403;27;45442;-75
2023/10/15 11:05:24;;;;;;;;;2.00;1.00;;;;;16.49;100.00;102193.31;5106429;27;47713;-76
2023/10/15 11:07:49;;;;;;;;;0.00;0.00;;;;;16.46;100.00;102203.97;5097397;27;67665;-76
2023/10/15 11:10:16;;;;;;;;;0.33;0.33;;;;;16.39;100.00;102204.78;5108413;27;63462;-76
2023/10/15 11:12:45;;;;;;;;;0.00;0.00;;;;;16.34;100.00;102212.72;5110604;27;47092;-75
2023/10/15 11:15:10;;;;;;;;;4.67;1.00;;;;;16.29;100.00;102206.44;5109659;27;47465;-75
2023/10/15 11:17:35;;;;;;;;;1.00;1.00;;;;;16.27;100.00;102205.56;5111520;27;45405;-75
2023/10/15 11:20:03;;;;;;;;;3.33;1.33;;;;;16.30;100.00;102208.25;5110591;27;45841;-76
2023/10/15 11:22:29;;;;;;;;;0.67;0.67;;;;;16.32;100.00;102202.94;5114390;27;45223;-75
2023/10/15 11:24:55;;;;;;;;;1.00;1.00;;;;;16.31;100.00;102203.81;5114406;27;45943;-75
2023/10/15 11:27:21;;;;;;;;;0.00;0.00;;;;;16.32;100.00;102200.28;5117424;27;45284;-75
2023/10/15 11:29:47;;;;;;;;;1.00;1.00;;;;;16.37;100.00;102199.44;5099629;27;45212;-76
2023/10/15 11:32:12;;;;;;;;;1.00;1.00;;;;;16.39;100.00;102195.00;5127071;27;45480;-72
2023/10/15 11:34:39;;;;;;;;;0.00;0.00;;;;;16.45;100.00;102192.38;5114715;27;45687;-75
2023/10/15 11:37:07;;;;;;;;;0.00;0.00;;;;;16.51;100.00;102191.53;5106435;27;45540;-75
2023/10/15 11:39:42;;;;;;;;;2.00;0.00;;;;;16.56;100.00;102188.91;5108661;27;45467;-75